Time;durP1;ratioP1;P1;durP2;ratioP2;P2;SDS_P1;SDS_P2;PMS_P1;PMS_P2;Temp;Humidity;BMP_temperature;BMP_pressure;BME280_temperature;BME280_humidity;BME280_pressure;Samples;Min_cycle;Max_cycle;Signal;HPM_P1;HPM_P2
2022/09/25 00:00:41;;;;;;;72.03;28.38;;;12.30;99.90;;;;;;5086994;28;20059;-86
2022/09/25 00:03:09;;;;;;;73.13;27.70;;;12.30;99.90;;;;;;5084233;28;20037;-86
2022/09/25 00:05:36;;;;;;;75.05;27.67;;;12.30;99.90;;;;;;5083948;28;20036;-86
2022/09/25 00:08:04;;;;;;;67.72;28.77;;;12.40;99.90;;;;;;5084616;28;20036;-86
2022/09/25 00:10:30;;;;;;;72.88;28.52;;;12.40;99.90;;;;;;5082162;28;20028;-88
2022/09/25 00:12:56;;;;;;;76.90;28.85;;;12.30;99.90;;;;;;5059663;28;20412;-86
2022/09/25 00:15:23;;;;;;;74.15;29.00;;;12.30;99.90;;;;;;5071299;28;20033;-85
2022/09/25 00:17:49;;;;;;;68.63;27.75;;;12.30;99.90;;;;;;5055252;28;20480;-86
2022/09/25 00:20:17;;;;;;;68.22;29.10;;;12.20;99.90;;;;;;5077700;28;20040;-82
2022/09/25 00:22:43;;;;;;;70.28;29.63;;;12.20;99.90;;;;;;5073896;28;20039;-86
2022/09/25 00:25:13;;;;;;;68.05;29.00;;;12.20;99.90;;;;;;5056532;28;20515;-86
2022/09/25 00:27:40;;;;;;;74.37;30.07;;;12.20;99.90;;;;;;5074209;28;20457;-86
2022/09/25 00:30:08;;;;;;;70.72;28.42;;;12.10;99.90;;;;;;5039464;28;20044;-86
2022/09/25 00:32:34;;;;;;;73.93;28.52;;;12.10;99.90;;;;;;5054005;28;20047;-87
2022/09/25 00:35:00;;;;;;;73.68;29.67;;;12.20;99.90;;;;;;5053093;28;20044;-86
2022/09/25 00:37:27;;;;;;;76.72;28.75;;;12.20;99.90;;;;;;5053831;28;20037;-87
2022/09/25 00:39:54;;;;;;;82.43;29.70;;;12.20;99.90;;;;;;5058162;28;20040;-87
2022/09/25 00:42:21;;;;;;;74.70;29.85;;;12.10;99.90;;;;;;5074219;28;20043;-87
2022/09/25 00:44:58;;;;;;;78.97;31.08;;;12.10;99.90;;;;;;5075809;28;20040;-86
2022/09/25 00:48:03;;;;;;;76.63;31.17;;;12.10;99.90;;;;;;5076521;28;20028;-87
2022/09/25 00:50:40;;;;;;;79.82;29.77;;;12.10;99.90;;;;;;5078901;28;20041;-87
2022/09/25 00:53:18;;;;;;;81.28;29.40;;;12.00;99.90;;;;;;5068879;28;20044;-87
2022/09/25 00:55:45;;;;;;;72.72;29.35;;;12.00;99.90;;;;;;5079870;28;20032;-87
2022/09/25 00:58:15;;;;;;;79.80;31.13;;;12.10;99.90;;;;;;5066931;28;20033;-87
2022/09/25 01:00:41;;;;;;;87.90;32.22;;;12.00;99.90;;;;;;5080253;28;20052;-87
2022/09/25 01:03:08;;;;;;;77.63;29.77;;;12.00;99.90;;;;;;5103987;28;20047;-87
2022/09/25 01:05:37;;;;;;;80.45;29.42;;;12.00;99.90;;;;;;5091933;28;20035;-87
2022/09/25 01:08:05;;;;;;;80.45;29.77;;;12.00;99.90;;;;;;5099624;28;20035;-87
2022/09/25 01:10:31;;;;;;;76.82;30.35;;;12.00;99.90;;;;;;5104786;28;20063;-87
2022/09/25 01:12:59;;;;;;;81.65;31.27;;;12.10;99.90;;;;;;5095466;28;20036;-88
2022/09/25 01:15:51;;;;;;;91.47;31.83;;;12.10;99.90;;;;;;5096911;28;20044;-87
2022/09/25 01:18:38;;;;;;;82.82;30.02;;;12.10;99.90;;;;;;5096186;28;20028;-87
2022/09/25 01:21:32;;;;;;;80.85;29.55;;;12.10;99.90;;;;;;5095514;28;20036;-89
2022/09/25 01:24:23;;;;;;;82.63;29.80;;;12.10;99.90;;;;;;5090215;28;20040;-88
2022/09/25 01:27:10;;;;;;;91.95;32.20;;;12.10;99.90;;;;;;5094861;28;20035;-89
2022/09/25 01:29:56;;;;;;;91.65;31.58;;;12.10;99.90;;;;;;5089534;28;20028;-88
2022/09/25 01:32:32;;;;;;;88.80;30.48;;;12.20;99.90;;;;;;5094192;28;20051;-89
2022/09/25 01:35:15;;;;;;;102.03;34.28;;;12.20;99.90;;;;;;5094404;28;20028;-88
2022/09/25 01:37:56;;;;;;;103.00;34.15;;;12.20;99.90;;;;;;5093631;28;20051;-88
2022/09/25 01:40:32;;;;;;;97.47;32.88;;;12.10;99.90;;;;;;5095542;28;20380;-88
2022/09/25 01:43:24;;;;;;;91.50;32.72;;;12.00;99.90;;;;;;5103799;28;20040;-88
2022/09/25 01:46:00;;;;;;;99.57;32.15;;;12.00;99.90;;;;;;5095759;28;20044;-88
2022/09/25 01:48:29;;;;;;;91.20;32.13;;;12.00;99.90;;;;;;5108231;28;20066;-87
2022/09/25 01:51:03;;;;;;;80.55;30.67;;;12.00;99.90;;;;;;5103728;28;20032;-87
2022/09/25 01:53:39;;;;;;;97.15;32.15;;;12.00;99.90;;;;;;5096193;28;20460;-87
2022/09/25 01:56:12;;;;;;;101.82;33.00;;;12.00;99.90;;;;;;5094006;28;20028;-87
2022/09/25 01:58:44;;;;;;;99.57;32.67;;;12.00;99.90;;;;;;5094299;28;20028;-87
2022/09/25 02:01:21;;;;;;;103.03;32.05;;;12.00;99.90;;;;;;5076194;28;20048;-88
2022/09/25 02:04:12;;;;;;;94.03;32.88;;;12.00;99.90;;;;;;5094920;28;20039;-89
2022/09/25 02:06:42;;;;;;;90.72;32.95;;;12.00;99.90;;;;;;5092224;28;20048;-87
2022/09/25 02:09:42;;;;;;;95.72;33.40;;;12.10;99.90;;;;;;5093551;28;20043;-88
2022/09/25 02:12:16;;;;;;;96.75;30.38;;;12.10;99.90;;;;;;5046392;28;20040;-89
2022/09/25 02:15:07;;;;;;;92.72;33.60;;;12.10;99.90;;;;;;5091071;28;20043;-86
2022/09/25 02:20:44;;;;;;;103.00;33.85;;;12.10;99.90;;;;;;5094221;28;20339;-88
2022/09/25 02:23:39;;;;;;;91.80;33.05;;;12.10;99.90;;;;;;5093486;28;20028;-88
2022/09/25 02:26:08;;;;;;;88.03;31.70;;;12.10;99.90;;;;;;5040803;28;20055;-89
2022/09/25 02:28:35;;;;;;;93.47;33.97;;;12.10;99.90;;;;;;5092716;28;20035;-88
2022/09/25 02:31:05;;;;;;;102.55;33.33;;;12.00;99.90;;;;;;5092985;28;20469;-88
2022/09/25 02:33:32;;;;;;;105.78;31.77;;;12.00;99.90;;;;;;5093689;28;20036;-88
2022/09/25 02:36:01;;;;;;;87.22;30.83;;;12.00;99.90;;;;;;5090703;28;20059;-88
2022/09/25 02:38:29;;;;;;;79.77;23.00;;;12.00;99.90;;;;;;5093666;28;20059;-88
2022/09/25 02:41:14;;;;;;;103.22;31.65;;;12.00;99.90;;;;;;5092912;28;20114;-88
2022/09/25 02:43:49;;;;;;;91.35;32.38;;;12.10;99.90;;;;;;5093735;28;20044;-89
2022/09/25 02:46:25;;;;;;;94.05;33.30;;;12.00;99.90;;;;;;5092832;28;20472;-88
2022/09/25 02:49:17;;;;;;;80.00;29.48;;;12.00;99.90;;;;;;5093924;28;20040;-87
2022/09/25 02:52:07;;;;;;;98.07;32.42;;;12.00;99.90;;;;;;5093595;28;20036;-87
2022/09/25 02:55:01;;;;;;;91.70;30.60;;;12.00;99.90;;;;;;5093100;28;20036;-86
2022/09/25 02:57:45;;;;;;;97.70;31.40;;;12.10;99.90;;;;;;5093529;28;20023;-88
2022/09/25 03:00:12;;;;;;;82.55;29.70;;;12.00;99.90;;;;;;5087800;28;20059;-88
2022/09/25 03:02:40;;;;;;;100.13;31.85;;;12.00;99.90;;;;;;5095851;28;20055;-87
2022/09/25 03:05:11;;;;;;;101.78;33.42;;;12.00;99.90;;;;;;5107898;28;20036;-88
2022/09/25 03:10:25;;;;;;;99.43;32.33;;;12.10;99.90;;;;;;5094856;28;20032;-86
2022/09/25 03:12:51;;;;;;;83.93;32.58;;;12.10;99.90;;;;;;5095570;28;20035;-88
2022/09/25 03:15:18;;;;;;;80.75;30.13;;;12.10;99.90;;;;;;5091813;28;20039;-88
2022/09/25 03:17:45;;;;;;;76.07;29.30;;;12.00;99.90;;;;;;5093287;28;20040;-88
2022/09/25 03:20:11;;;;;;;80.22;29.52;;;12.00;99.90;;;;;;5093998;28;20032;-88
2022/09/25 03:22:38;;;;;;;77.72;29.65;;;12.00;99.90;;;;;;5091005;28;20048;-89
2022/09/25 03:25:04;;;;;;;77.85;29.42;;;12.00;99.90;;;;;;5092065;28;20039;-89
2022/09/25 03:27:31;;;;;;;83.65;29.10;;;12.00;99.90;;;;;;5092952;28;20051;-87
2022/09/25 03:29:57;;;;;;;63.00;25.50;;;12.00;99.90;;;;;;5091676;28;20043;-88
2022/09/25 03:32:24;;;;;;;65.05;26.98;;;12.10;99.90;;;;;;5092867;28;20036;-89
2022/09/25 03:34:50;;;;;;;58.80;24.80;;;12.00;99.90;;;;;;5091877;28;20409;-88
2022/09/25 03:37:16;;;;;;;59.47;23.92;;;11.90;99.90;;;;;;5093270;28;20035;-88
2022/09/25 03:39:42;;;;;;;56.08;24.13;;;11.90;99.90;;;;;;5091042;28;20028;-87
2022/09/25 03:42:09;;;;;;;59.13;22.90;;;11.90;99.90;;;;;;5092193;28;20036;-85
2022/09/25 03:44:35;;;;;;;54.20;23.08;;;11.90;99.90;;;;;;5090343;28;20036;-84
2022/09/25 03:47:01;;;;;;;51.30;23.25;;;11.90;99.90;;;;;;5092500;28;20388;-83
2022/09/25 03:49:27;;;;;;;50.20;21.88;;;11.90;99.90;;;;;;5090584;28;20424;-85
2022/09/25 03:51:53;;;;;;;47.80;21.42;;;11.90;99.90;;;;;;5091229;28;20032;-84
2022/09/25 03:54:19;;;;;;;52.50;20.92;;;11.90;99.90;;;;;;5090151;28;20051;-83
2022/09/25 03:56:45;;;;;;;49.28;21.10;;;11.90;99.90;;;;;;5091103;28;20034;-83
2022/09/25 03:59:11;;;;;;;52.33;21.05;;;11.90;99.90;;;;;;5092020;28;20039;-83
2022/09/25 04:01:39;;;;;;;42.00;20.15;;;11.90;99.90;;;;;;5075935;28;20068;-83
2022/09/25 04:04:05;;;;;;;56.85;22.88;;;11.90;99.90;;;;;;5071785;28;20039;-84
2022/09/25 04:06:31;;;;;;;58.60;23.45;;;11.90;99.90;;;;;;5069909;28;20036;-82
2022/09/25 04:08:57;;;;;;;48.38;20.58;;;11.90;99.90;;;;;;5071725;28;20025;-82
2022/09/25 04:11:23;;;;;;;58.53;22.58;;;11.90;99.90;;;;;;5053892;28;20036;-82
2022/09/25 04:13:51;;;;;;;64.80;23.95;;;11.90;99.90;;;;;;5053595;28;20029;-83
2022/09/25 04:16:19;;;;;;;50.25;22.35;;;11.90;99.90;;;;;;5052719;28;20041;-83
2022/09/25 04:18:45;;;;;;;64.90;22.92;;;11.90;99.90;;;;;;5046410;28;20048;-83
2022/09/25 04:21:13;;;;;;;49.58;23.10;;;11.90;99.90;;;;;;5071575;28;20028;-82
2022/09/25 04:23:40;;;;;;;53.33;21.75;;;11.90;99.90;;;;;;5056482;28;20420;-83
2022/09/25 04:26:07;;;;;;;53.00;21.48;;;11.90;99.90;;;;;;5055821;28;20397;-83
2022/09/25 04:28:34;;;;;;;59.13;22.88;;;11.90;99.90;;;;;;5074770;28;20024;-82
2022/09/25 04:31:01;;;;;;;60.47;23.60;;;11.80;99.90;;;;;;5075732;28;20051;-83
2022/09/25 04:33:46;;;;;;;66.47;22.38;;;11.80;99.90;;;;;;5075436;28;20043;-82
2022/09/25 04:36:17;;;;;;;58.83;22.98;;;11.80;99.90;;;;;;5039645;28;20040;-82
2022/09/25 04:38:44;;;;;;;58.03;22.10;;;11.80;99.90;;;;;;5040392;28;20150;-83
2022/09/25 04:41:10;;;;;;;45.92;21.55;;;11.90;99.90;;;;;;5075328;28;20047;-82
2022/09/25 04:43:37;;;;;;;53.00;20.70;;;11.90;99.90;;;;;;5074546;28;20033;-82
2022/09/25 04:46:06;;;;;;;49.40;19.88;;;11.90;99.90;;;;;;5055478;28;20040;-82
2022/09/25 04:48:33;;;;;;;51.83;21.15;;;11.90;99.90;;;;;;5065021;28;20029;-82
2022/09/25 04:50:59;;;;;;;41.28;18.70;;;11.80;99.90;;;;;;5050931;28;20389;-81
2022/09/25 04:53:28;;;;;;;43.90;18.10;;;11.90;99.90;;;;;;5057574;28;20037;-84
2022/09/25 04:56:00;;;;;;;43.58;19.00;;;11.90;99.90;;;;;;5073703;28;20043;-82
2022/09/25 04:58:27;;;;;;;45.03;18.08;;;11.80;99.90;;;;;;5069065;28;20041;-82
2022/09/25 05:00:53;;;;;;;39.03;17.70;;;11.90;99.90;;;;;;5068365;28;20049;-82
2022/09/25 05:03:19;;;;;;;37.60;17.02;;;11.80;99.90;;;;;;5056998;28;20043;-82
2022/09/25 05:05:45;;;;;;;39.35;16.70;;;11.80;99.90;;;;;;5055164;28;20392;-82
2022/09/25 05:08:11;;;;;;;41.05;16.52;;;11.80;99.90;;;;;;5057311;28;20025;-82
2022/09/25 05:10:41;;;;;;;47.45;16.77;;;11.90;99.90;;;;;;5055527;28;20036;-83
2022/09/25 05:13:10;;;;;;;42.40;17.13;;;11.90;99.90;;;;;;5074655;28;20040;-84
2022/09/25 05:15:36;;;;;;;41.35;16.38;;;11.90;99.90;;;;;;5054897;28;20032;-82
2022/09/25 05:18:06;;;;;;;33.30;15.32;;;11.90;99.90;;;;;;5075014;28;20040;-83
2022/09/25 05:20:34;;;;;;;42.17;15.83;;;11.90;99.90;;;;;;5074684;28;20029;-82
2022/09/25 05:23:02;;;;;;;33.72;15.40;;;11.90;99.90;;;;;;5074378;28;20294;-83
2022/09/25 05:25:28;;;;;;;37.78;16.55;;;11.90;99.90;;;;;;5055360;28;20469;-82
2022/09/25 05:27:58;;;;;;;30.58;14.15;;;11.90;99.90;;;;;;5074805;28;20393;-82
2022/09/25 05:30:26;;;;;;;30.45;15.48;;;11.90;99.90;;;;;;5056406;28;20044;-83
2022/09/25 05:32:53;;;;;;;33.10;14.55;;;11.90;99.90;;;;;;5055549;28;20040;-85
2022/09/25 05:35:22;;;;;;;32.67;14.18;;;11.90;99.90;;;;;;5072909;28;20035;-83
2022/09/25 05:37:49;;;;;;;33.00;14.45;;;11.90;99.90;;;;;;5073649;28;20059;-83
2022/09/25 05:40:16;;;;;;;36.85;15.93;;;11.90;99.90;;;;;;5059413;28;20044;-83
2022/09/25 05:42:43;;;;;;;35.00;16.35;;;11.90;99.90;;;;;;5074114;28;20059;-84
2022/09/25 05:45:11;;;;;;;36.03;15.57;;;12.00;99.90;;;;;;5072771;28;20043;-84
2022/09/25 05:47:38;;;;;;;33.20;16.65;;;11.90;99.90;;;;;;5055653;28;20053;-84
2022/09/25 05:50:05;;;;;;;37.05;17.13;;;11.90;99.90;;;;;;5055582;28;20044;-83
2022/09/25 05:52:31;;;;;;;35.33;16.90;;;11.90;99.90;;;;;;5056074;28;20400;-83
2022/09/25 05:54:57;;;;;;;43.58;17.80;;;11.90;99.90;;;;;;5072902;28;20032;-83
2022/09/25 05:57:23;;;;;;;36.40;15.95;;;11.90;99.90;;;;;;5074291;28;20033;-83
2022/09/25 05:59:49;;;;;;;35.15;16.73;;;11.90;99.90;;;;;;5073294;28;20025;-82
2022/09/25 06:02:16;;;;;;;40.17;17.00;;;11.90;99.90;;;;;;5073792;28;20036;-83
2022/09/25 06:04:42;;;;;;;32.65;16.02;;;11.90;99.90;;;;;;5072856;28;20496;-82
2022/09/25 06:07:08;;;;;;;29.52;16.45;;;12.00;99.90;;;;;;5080411;28;20388;-83
2022/09/25 06:09:35;;;;;;;37.70;17.55;;;11.90;99.90;;;;;;5068112;28;20491;-83
2022/09/25 06:12:02;;;;;;;41.20;17.40;;;12.00;99.90;;;;;;5085425;28;20380;-83
2022/09/25 06:14:29;;;;;;;35.88;16.40;;;12.00;99.90;;;;;;5076657;28;20043;-83
2022/09/25 06:16:57;;;;;;;31.77;14.93;;;12.00;99.90;;;;;;5079011;28;20040;-83
2022/09/25 06:19:23;;;;;;;34.72;15.98;;;12.00;99.90;;;;;;5056226;28;20036;-83
2022/09/25 06:21:49;;;;;;;38.83;16.60;;;12.00;99.90;;;;;;5078701;28;20040;-81
2022/09/25 06:24:15;;;;;;;32.17;15.57;;;12.00;99.90;;;;;;5095880;28;20062;-81
2022/09/25 06:26:41;;;;;;;34.17;14.68;;;12.00;99.90;;;;;;5092372;28;20038;-83
2022/09/25 06:29:07;;;;;;;29.92;14.35;;;11.90;99.90;;;;;;5074265;28;20035;-83
2022/09/25 06:31:34;;;;;;;28.00;13.55;;;11.90;99.90;;;;;;5073458;28;20041;-84
2022/09/25 06:34:00;;;;;;;34.08;16.63;;;11.90;99.90;;;;;;5055577;28;20040;-83
2022/09/25 06:36:26;;;;;;;29.42;15.05;;;11.90;99.90;;;;;;5072623;28;20055;-84
2022/09/25 06:38:54;;;;;;;33.05;15.05;;;12.00;99.90;;;;;;5072658;28;20226;-86
2022/09/25 06:41:21;;;;;;;31.00;15.73;;;12.00;99.90;;;;;;5073307;28;20028;-83
2022/09/25 06:43:49;;;;;;;38.90;17.33;;;12.00;99.90;;;;;;5054486;28;20053;-84
2022/09/25 06:46:17;;;;;;;35.03;18.35;;;12.00;99.90;;;;;;5071123;28;20040;-78
2022/09/25 06:48:43;;;;;;;37.75;17.65;;;12.00;99.90;;;;;;5072189;28;20374;-76
2022/09/25 06:51:09;;;;;;;35.60;17.77;;;12.00;99.90;;;;;;5072874;28;20036;-76
2022/09/25 06:53:36;;;;;;;36.67;18.85;;;12.00;99.90;;;;;;5072417;28;20028;-78
2022/09/25 06:56:02;;;;;;;38.17;18.92;;;12.10;99.90;;;;;;5071468;28;20032;-78
2022/09/25 06:58:29;;;;;;;46.67;20.33;;;12.10;99.90;;;;;;5072670;28;20039;-78
2022/09/25 07:00:56;;;;;;;44.55;20.75;;;12.20;99.90;;;;;;5071884;28;20481;-78
2022/09/25 07:06:09;;;;;;;46.00;22.40;;;12.20;99.90;;;;;;5071199;28;20128;-77
2022/09/25 07:08:36;;;;;;;43.88;22.10;;;12.20;99.90;;;;;;5072218;28;20488;-78
2022/09/25 07:11:03;;;;;;;45.88;22.30;;;12.20;99.90;;;;;;5072334;28;20033;-76
2022/09/25 07:13:32;;;;;;;53.10;23.38;;;12.30;99.90;;;;;;5072285;28;20036;-76
2022/09/25 07:16:00;;;;;;;48.92;24.70;;;12.30;99.90;;;;;;5070516;28;20033;-76
2022/09/25 07:18:28;;;;;;;46.05;22.25;;;12.40;99.90;;;;;;5072066;28;20035;-79
2022/09/25 07:21:07;;;;;;;44.65;23.08;;;12.30;99.90;;;;;;5071697;28;20043;-76
2022/09/25 07:23:34;;;;;;;45.13;22.65;;;12.30;99.90;;;;;;5072338;28;20047;-75
2022/09/25 07:26:05;;;;;;;40.60;22.08;;;12.30;99.90;;;;;;5070321;28;20044;-76
2022/09/25 07:28:31;;;;;;;49.58;23.38;;;12.30;99.90;;;;;;5072277;28;20028;-75
2022/09/25 07:30:57;;;;;;;44.30;22.75;;;12.30;99.90;;;;;;5071636;28;20040;-77
2022/09/25 07:33:23;;;;;;;47.08;21.85;;;12.30;99.90;;;;;;5072329;28;20024;-75
2022/09/25 07:35:51;;;;;;;39.92;21.27;;;12.30;99.90;;;;;;5070038;28;20044;-75
2022/09/25 07:38:18;;;;;;;39.53;20.25;;;12.30;99.90;;;;;;5072166;28;20055;-75
2022/09/25 07:40:44;;;;;;;38.90;21.38;;;12.30;99.90;;;;;;5071322;28;20055;-75
2022/09/25 07:43:10;;;;;;;40.92;21.17;;;12.40;99.90;;;;;;5053907;28;20063;-75
2022/09/25 07:45:37;;;;;;;41.63;22.65;;;12.50;99.90;;;;;;5035868;28;20047;-81
2022/09/25 07:48:05;;;;;;;45.92;23.35;;;12.50;99.90;;;;;;5054060;28;20032;-76
2022/09/25 07:50:32;;;;;;;35.15;20.77;;;12.50;99.90;;;;;;5071227;28;20037;-76
2022/09/25 07:52:58;;;;;;;35.22;20.35;;;12.50;99.90;;;;;;5071145;28;20388;-76
2022/09/25 07:55:27;;;;;;;34.38;20.50;;;12.40;99.90;;;;;;5070426;28;20036;-75
2022/09/25 07:57:56;;;;;;;38.58;19.48;;;12.50;99.90;;;;;;5070351;28;20044;-77
2022/09/25 08:00:22;;;;;;;39.05;21.10;;;12.60;99.90;;;;;;5071293;28;20052;-76
2022/09/25 08:02:58;;;;;;;35.42;19.90;;;12.60;99.90;;;;;;5071155;28;20473;-77
2022/09/25 08:05:26;;;;;;;37.95;20.60;;;12.70;99.90;;;;;;5070053;28;20397;-75
2022/09/25 08:07:53;;;;;;;34.40;19.35;;;12.70;99.90;;;;;;5052548;28;20040;-75
2022/09/25 08:10:20;;;;;;;33.97;18.73;;;12.70;99.90;;;;;;5070479;28;20090;-75
2022/09/25 08:12:47;;;;;;;34.67;18.83;;;12.70;99.90;;;;;;5070926;28;20029;-75
2022/09/25 08:15:13;;;;;;;31.17;17.77;;;12.60;99.90;;;;;;5070621;28;20032;-77
2022/09/25 08:17:40;;;;;;;30.75;17.15;;;12.90;99.90;;;;;;5071196;28;20036;-76
2022/09/25 08:20:07;;;;;;;29.52;17.55;;;13.00;99.90;;;;;;5047068;28;20044;-75
2022/09/25 08:22:34;;;;;;;27.33;18.27;;;13.10;99.90;;;;;;5071439;28;20032;-77
2022/09/25 08:25:02;;;;;;;22.70;16.17;;;13.20;99.90;;;;;;5051991;28;20048;-76
2022/09/25 08:27:30;;;;;;;18.88;13.10;;;13.30;99.90;;;;;;5071868;28;20036;-76
2022/09/25 08:29:56;;;;;;;17.50;12.80;;;13.20;99.90;;;;;;5071377;28;20033;-77
2022/09/25 08:32:22;;;;;;;20.63;12.52;;;13.00;99.90;;;;;;5071754;28;20032;-76
2022/09/25 08:34:49;;;;;;;17.13;13.05;;;13.20;99.90;;;;;;5070442;28;20040;-76
2022/09/25 08:37:16;;;;;;;18.13;13.52;;;13.40;99.90;;;;;;5074487;28;20054;-77
2022/09/25 08:39:42;;;;;;;17.45;11.77;;;13.50;99.90;;;;;;5070446;28;20035;-77
2022/09/25 08:42:34;;;;;;;18.85;12.63;;;13.50;99.90;;;;;;5069869;28;20465;-77
2022/09/25 08:50:38;;;;;;;14.95;10.88;;;13.50;99.90;;;;;;5071340;28;20040;-76
2022/09/25 08:53:23;;;;;;;16.38;11.20;;;13.70;99.90;;;;;;5071101;28;20028;-77
2022/09/25 08:58:42;;;;;;;13.00;8.60;;;13.90;99.90;;;;;;5071673;28;20032;-74
2022/09/25 09:01:15;;;;;;;12.27;7.50;;;13.80;99.90;;;;;;5071142;28;20075;-76
2022/09/25 09:03:49;;;;;;;8.00;5.55;;;13.50;99.90;;;;;;5074222;28;20261;-78
2022/09/25 09:06:17;;;;;;;9.10;5.40;;;13.30;99.90;;;;;;5053224;28;20048;-76
2022/09/25 09:08:50;;;;;;;7.13;5.50;;;13.30;99.90;;;;;;5054129;28;20045;-76
2022/09/25 09:11:46;;;;;;;7.57;5.80;;;13.30;99.90;;;;;;5075259;28;20040;-76
2022/09/25 09:14:17;;;;;;;7.75;6.35;;;13.30;99.90;;;;;;5059465;28;20032;-78
2022/09/25 09:16:48;;;;;;;;;;;13.40;99.90;;;;;;5074628;28;20040;-78
2022/09/25 09:19:15;;;;;;;8.35;6.07;;;13.40;99.90;;;;;;5056692;28;20361;-76
2022/09/25 09:22:05;;;;;;;7.18;5.43;;;13.40;99.90;;;;;;5074325;28;20029;-82
2022/09/25 09:24:52;;;;;;;8.88;5.80;;;13.50;99.90;;;;;;5073496;28;20357;-77
2022/09/25 09:27:43;;;;;;;8.40;6.25;;;13.60;99.90;;;;;;5056911;28;20040;-77
2022/09/25 09:30:52;;;;;;;7.35;5.88;;;13.60;99.90;;;;;;5039571;28;20355;-78
2022/09/25 09:33:42;;;;;;;8.82;5.95;;;13.50;99.90;;;;;;5021437;28;20068;-79
2022/09/25 09:36:32;;;;;;;9.50;7.18;;;13.40;99.90;;;;;;5056655;28;20473;-78
2022/09/25 09:39:27;;;;;;;17.47;11.60;;;13.40;99.90;;;;;;5085180;28;20033;-78
2022/09/25 09:42:13;;;;;;;17.98;11.95;;;13.40;99.90;;;;;;5083484;28;20275;-78
2022/09/25 09:44:56;;;;;;;18.23;13.75;;;13.50;99.90;;;;;;5075104;28;20033;-77
2022/09/25 09:47:38;;;;;;;18.80;13.60;;;13.40;99.90;;;;;;5049817;28;20039;-77
2022/09/25 09:50:31;;;;;;;25.10;15.30;;;13.50;99.90;;;;;;5069083;28;20461;-79
2022/09/25 09:53:02;;;;;;;21.65;12.93;;;13.40;99.90;;;;;;5073575;28;20037;-79
2022/09/25 09:55:36;;;;;;;17.85;13.27;;;13.30;99.90;;;;;;5073114;28;20036;-81
2022/09/25 09:58:09;;;;;;;21.30;13.73;;;13.30;99.90;;;;;;5039096;28;20469;-79
2022/09/25 10:00:37;;;;;;;26.40;18.80;;;13.30;99.90;;;;;;5049214;28;20079;-80
2022/09/25 10:03:13;;;;;;;28.30;19.63;;;13.40;99.90;;;;;;5049878;28;20047;-79
2022/09/25 10:05:45;;;;;;;18.88;13.80;;;13.40;99.90;;;;;;5066842;28;20040;-79
2022/09/25 10:08:12;;;;;;;18.77;13.18;;;13.40;99.90;;;;;;5074026;28;20035;-79
2022/09/25 10:10:42;;;;;;;18.13;14.15;;;13.40;99.90;;;;;;5074042;28;20055;-78
2022/09/25 10:13:25;;;;;;;17.63;14.70;;;13.50;99.90;;;;;;5073559;28;20043;-77
2022/09/25 10:16:03;;;;;;;20.48;13.15;;;13.70;99.90;;;;;;5053736;28;20047;-79
2022/09/25 10:18:39;;;;;;;18.27;12.50;;;13.80;99.90;;;;;;5039093;28;20040;-76
2022/09/25 10:21:12;;;;;;;16.48;12.10;;;13.80;99.90;;;;;;5072759;28;20033;-78
2022/09/25 10:23:46;;;;;;;10.60;8.38;;;13.90;99.90;;;;;;5052140;28;20051;-81
2022/09/25 10:26:35;;;;;;;13.98;9.35;;;13.90;99.90;;;;;;5058254;28;20091;-80
2022/09/25 10:29:09;;;;;;;9.90;6.95;;;14.00;99.90;;;;;;5053680;28;20048;-80
2022/09/25 10:31:38;;;;;;;8.38;6.60;;;14.10;99.90;;;;;;5055296;28;20091;-81
2022/09/25 10:34:16;;;;;;;8.60;6.53;;;14.20;99.90;;;;;;5075492;28;20204;-80
2022/09/25 10:36:45;;;;;;;7.45;4.75;;;14.10;99.90;;;;;;5046206;28;20094;-81
2022/09/25 10:39:30;;;;;;;10.05;7.03;;;14.20;99.90;;;;;;5082247;28;20466;-81
2022/09/25 10:41:58;;;;;;;7.00;5.00;;;14.30;99.90;;;;;;5073069;28;20036;-80
2022/09/25 10:44:35;;;;;;;8.05;5.55;;;14.30;99.90;;;;;;5068005;28;20036;-80
2022/09/25 10:50:25;;;;;;;11.13;5.15;;;14.20;99.90;;;;;;5051537;28;20048;-81
2022/09/25 10:52:54;;;;;;;8.48;4.70;;;14.30;99.90;;;;;;5071542;28;20036;-82
2022/09/25 10:55:31;;;;;;;10.32;7.22;;;14.30;99.90;;;;;;5046493;28;20040;-82
2022/09/25 10:58:09;;;;;;;12.07;8.35;;;14.30;99.90;;;;;;5055737;28;20029;-81
2022/09/25 11:00:53;;;;;;;10.07;6.80;;;14.30;99.90;;;;;;5065575;28;20473;-81
2022/09/25 11:03:38;;;;;;;9.35;7.47;;;14.60;99.90;;;;;;5092531;28;20491;-81
2022/09/25 11:06:09;;;;;;;7.43;5.53;;;14.70;99.90;;;;;;5098572;28;20032;-81
2022/09/25 11:08:39;;;;;;;7.72;5.82;;;14.60;99.90;;;;;;5092769;28;20028;-81
2022/09/25 11:11:08;;;;;;;7.18;5.57;;;14.60;99.90;;;;;;5091645;28;20384;-81
2022/09/25 11:13:49;;;;;;;8.50;5.88;;;14.60;99.90;;;;;;5090699;28;20035;-81
2022/09/25 11:16:16;;;;;;;8.63;5.47;;;14.90;99.90;;;;;;5091817;28;20044;-81
2022/09/25 11:18:46;;;;;;;7.60;4.38;;;14.70;99.90;;;;;;5092281;28;20384;-81
2022/09/25 11:21:17;;;;;;;6.68;4.97;;;14.80;99.90;;;;;;5091236;28;20036;-83
2022/09/25 11:23:57;;;;;;;;;;;14.70;99.90;;;;;;5090515;28;20051;-83
2022/09/25 11:26:40;;;;;;;7.30;4.65;;;14.80;99.90;;;;;;5093523;28;19923;-84
2022/09/25 11:29:45;;;;;;;9.80;6.85;;;14.80;99.90;;;;;;5091820;28;20063;-84
2022/09/25 11:32:32;;;;;;;6.57;4.80;;;14.90;99.90;;;;;;5025587;28;20041;-83
2022/09/25 11:35:18;;;;;;;4.80;3.53;;;15.00;99.90;;;;;;5029666;28;20041;-84
2022/09/25 11:38:16;;;;;;;9.18;4.90;;;15.20;99.90;;;;;;5072067;28;20040;-83
2022/09/25 11:41:17;;;;;;;6.35;4.03;;;15.30;99.90;;;;;;5091479;28;20051;-84
2022/09/25 11:43:58;;;;;;;5.72;4.20;;;15.40;99.90;;;;;;5072887;28;20040;-84
2022/09/25 11:46:40;;;;;;;5.28;3.78;;;15.40;99.90;;;;;;5092573;28;20032;-84
2022/09/25 11:49:23;;;;;;;5.15;3.88;;;15.30;99.90;;;;;;5090556;28;20119;-85
2022/09/25 11:52:07;;;;;;;5.57;4.18;;;15.40;99.90;;;;;;5091445;28;20040;-82
2022/09/25 11:55:15;;;;;;;4.70;3.28;;;15.40;99.90;;;;;;5091107;28;20036;-83
2022/09/25 11:58:13;;;;;;;5.28;3.38;;;15.60;99.90;;;;;;5091665;28;20032;-83
2022/09/25 12:01:02;;;;;;;5.30;3.45;;;15.70;99.90;;;;;;5091114;28;20052;-85
2022/09/25 12:03:28;;;;;;;6.07;4.18;;;15.50;99.90;;;;;;5091137;28;20032;-85
2022/09/25 12:06:13;;;;;;;5.80;3.58;;;15.30;99.90;;;;;;5091891;28;20051;-82
2022/09/25 12:08:57;;;;;;;6.80;4.07;;;15.10;99.90;;;;;;5092526;28;20032;-83
2022/09/25 12:11:42;;;;;;;7.13;4.78;;;15.10;99.90;;;;;;5090328;28;20477;-85
2022/09/25 12:14:27;;;;;;;7.70;5.15;;;15.10;99.90;;;;;;5089332;28;20484;-83
2022/09/25 12:16:57;;;;;;;5.95;3.90;;;15.10;99.90;;;;;;5093700;28;20036;-83
2022/09/25 12:19:47;;;;;;;5.28;3.95;;;15.00;99.90;;;;;;5095107;28;20043;-83
2022/09/25 12:22:25;;;;;;;6.47;4.70;;;15.10;99.90;;;;;;5094606;28;20032;-83
2022/09/25 12:24:54;;;;;;;7.38;4.53;;;15.20;99.90;;;;;;5096909;28;20396;-82
2022/09/25 12:27:45;;;;;;;5.70;4.38;;;15.30;99.90;;;;;;5091054;28;20029;-82
2022/09/25 12:30:32;;;;;;;;;;;15.30;99.90;;;;;;5092152;28;20047;-84
2022/09/25 12:33:24;;;;;;;6.93;4.47;;;15.30;99.90;;;;;;5089107;28;19908;-86
2022/09/25 12:36:06;;;;;;;9.10;4.63;;;15.20;99.90;;;;;;5072570;28;20036;-84
2022/09/25 12:38:49;;;;;;;8.13;5.72;;;15.10;99.90;;;;;;5088659;28;20058;-85
2022/09/25 12:41:40;;;;;;;6.95;5.70;;;15.00;99.90;;;;;;5084941;28;20040;-83
2022/09/25 12:44:20;;;;;;;9.65;5.72;;;15.00;99.90;;;;;;5073702;28;20044;-83
2022/09/25 12:47:32;;;;;;;8.27;5.72;;;14.90;99.90;;;;;;5094827;28;20032;-81
2022/09/25 12:50:08;;;;;;;9.48;6.43;;;14.90;99.90;;;;;;5016817;28;20442;-84
2022/09/25 12:52:46;;;;;;;11.60;7.75;;;14.80;99.90;;;;;;5032966;28;20041;-85
2022/09/25 12:55:36;;;;;;;11.52;8.75;;;14.60;99.90;;;;;;5097810;28;20034;-81
2022/09/25 12:58:24;;;;;;;11.90;9.40;;;14.40;99.90;;;;;;5119351;28;20022;-82
2022/09/25 13:01:03;;;;;;;14.35;10.65;;;14.40;99.90;;;;;;5098546;28;20048;-83
2022/09/25 13:04:07;;;;;;;13.73;10.50;;;14.50;99.90;;;;;;5092724;28;20040;-85
2022/09/25 13:06:50;;;;;;;15.48;11.00;;;14.50;99.90;;;;;;5070782;28;20044;-82
2022/09/25 13:09:43;;;;;;;14.65;11.23;;;14.40;99.90;;;;;;5099477;28;20031;-83
2022/09/25 13:12:35;;;;;;;12.00;9.07;;;14.50;99.90;;;;;;5091983;28;20467;-83
2022/09/25 13:15:24;;;;;;;15.45;10.90;;;14.70;99.90;;;;;;5094871;28;20464;-84
2022/09/25 13:17:50;;;;;;;14.77;11.10;;;14.80;99.90;;;;;;5093709;28;20040;-82
2022/09/25 13:20:30;;;;;;;13.13;10.40;;;14.90;99.90;;;;;;5095346;28;20035;-80
2022/09/25 13:22:57;;;;;;;13.93;10.23;;;14.80;99.90;;;;;;5093300;28;20080;-82